Terminal Aerodrome Forecast
Issued by NWS

Home | Current Version | Previous Version | Text Only | Print | Product List | Glossary Off
Versions: 1 2 3 4 5 6 7 8 9 10 11 12 13 14 15 16

000
FTUS42 KMHX 151127
TAFISO
TAF
KISO 151127Z 1512/1612 VRB03KT P6SM SCT030 BKN100
     FM151400 36006KT P6SM BKN025
     FM151800 03008KT P6SM SCT020 BKN040
     FM160000 04004KT P6SM SCT020 BKN040
      AMD LTD TO CLD VIS AND WIND=

USA.gov is the U.S. government's official web portal to all federal, state and local government web resources and services.